Terminal Aerodrome Forecast
Issued by NWS

Home | Current Version | Previous Version | Text Only | Print | Product List | Glossary On
Versions: 1 2 3 4 5 6 7 8 9 10 11 12 13 14 15 16 17 18 19 20 21 22 23 24
480
FTAK31 PAFA 282335
TAFAOR
TAF
PAOR 282335Z 2900/2924 13005KT P6SM -SHRA VCTS SCT050CB OVC070
     FM290600 VRB06KT 6SM -SHRA BR SCT025 BKN035 OVC050=

USA.gov is the U.S. government's official web portal to all federal, state and local government web resources and services.